Time;durP1;ratioP1;P1;durP2;ratioP2;P2;SDS_P1;SDS_P2;PMS_P1;PMS_P2;Temp;Humidity;BMP_temperature;BMP_pressure;BME280_temperature;BME280_humidity;BME280_pressure;Samples;Min_cycle;Max_cycle;Signal;HPM_P1;HPM_P2
2023/05/23 00:01:23;;;;;;;3.80;2.90;;;;;;;21.86;57.30;100214.63;108131;1287;21986;-63
2023/05/23 00:03:51;;;;;;;4.90;2.50;;;;;;;21.85;57.49;100212.34;107980;1281;21995;-59
2023/05/23 00:06:20;;;;;;;5.50;2.30;;;;;;;21.86;56.87;100213.02;108230;1287;22003;-59
2023/05/23 00:08:47;;;;;;;3.10;1.90;;;;;;;21.88;57.12;100209.36;108165;1287;21993;-63
2023/05/23 00:11:13;;;;;;;5.30;2.40;;;;;;;21.87;57.11;100207.41;108105;1287;21998;-59
2023/05/23 00:13:40;;;;;;;4.10;2.60;;;;;;;21.85;57.31;100203.95;108098;1281;21999;-59
2023/05/23 00:16:09;;;;;;;5.40;2.40;;;;;;;21.83;57.32;100208.17;108111;1280;21998;-63
2023/05/23 00:18:36;;;;;;;7.20;2.80;;;;;;;21.82;58.03;100210.37;108145;1287;22460;-63
2023/05/23 00:21:02;;;;;;;4.70;2.20;;;;;;;21.81;58.00;100211.67;108111;1287;22460;-59
2023/05/23 00:23:28;;;;;;;4.00;2.50;;;;;;;21.81;57.95;100208.98;108139;1287;23041;-62
2023/05/23 00:25:54;;;;;;;3.90;2.50;;;;;;;21.82;58.22;100207.91;108144;1287;21990;-61
2023/05/23 00:28:21;;;;;;;4.70;2.50;;;;;;;21.82;57.93;100209.15;108240;1287;22045;-59
2023/05/23 00:30:47;;;;;;;5.50;2.40;;;;;;;21.84;58.17;100207.41;108188;1284;21996;-62
2023/05/23 00:33:15;;;;;;;3.70;2.60;;;;;;;21.86;58.35;100202.80;108152;1287;22346;-59
2023/05/23 00:35:41;;;;;;;4.70;2.70;;;;;;;21.88;58.33;100198.77;108178;1287;21992;-59
2023/05/23 00:38:06;;;;;;;4.80;2.50;;;;;;;21.90;58.24;100195.27;108093;1288;22003;-61
2023/05/23 00:40:35;;;;;;;4.00;2.40;;;;;;;21.92;58.42;100192.11;108100;1278;21996;-60
2023/05/23 00:43:01;;;;;;;4.00;2.50;;;;;;;21.93;58.36;100192.00;108132;1277;21985;-59
2023/05/23 00:45:26;;;;;;;5.20;2.50;;;;;;;21.96;58.34;100189.01;108128;1287;21994;-63
2023/05/23 00:47:53;;;;;;;6.10;2.30;;;;;;;21.97;58.46;100187.67;108102;1277;22000;-63
2023/05/23 00:50:19;;;;;;;3.40;2.50;;;;;;;21.98;58.89;100188.52;107859;1288;21995;-59
2023/05/23 00:52:45;;;;;;;3.90;2.30;;;;;;;21.96;59.06;100180.77;108116;1277;22460;-59
2023/05/23 00:55:11;;;;;;;5.30;2.40;;;;;;;21.94;58.78;100183.39;107809;1288;22357;-62
2023/05/23 00:57:39;;;;;;;5.10;2.50;;;;;;;21.93;58.93;100178.62;108137;1287;22461;-60
2023/05/23 01:00:10;;;;;;;4.40;2.90;;;;;;;21.93;58.96;100178.82;108139;1288;21992;-63
2023/05/23 01:02:44;;;;;;;5.10;2.80;;;;;;;21.91;59.20;100182.16;108157;1284;21990;-60
2023/05/23 01:05:13;;;;;;;4.20;2.30;;;;;;;21.89;59.12;100181.95;108056;1287;22105;-60
2023/05/23 01:07:45;;;;;;;6.90;2.90;;;;;;;21.88;59.19;100181.80;108109;1288;23055;-64
2023/05/23 01:10:15;;;;;;;5.80;2.60;;;;;;;21.88;59.35;100183.04;108079;1288;21992;-64
2023/05/23 01:12:56;;;;;;;4.00;2.60;;;;;;;21.87;59.49;100182.39;108234;1287;21992;-64
2023/05/23 01:15:25;;;;;;;4.90;2.50;;;;;;;21.87;59.50;100180.98;108276;1287;21981;-60
2023/05/23 01:18:22;;;;;;;6.00;2.80;;;;;;;21.86;60.27;100186.73;107995;1280;21996;-64
2023/05/23 01:20:51;;;;;;;4.90;2.90;;;;;;;21.83;60.26;100187.80;108093;1281;21999;-60
2023/05/23 01:23:42;;;;;;;4.90;2.90;;;;;;;21.83;59.85;100189.98;107890;1287;21986;-60
2023/05/23 01:26:43;;;;;;;7.80;2.90;;;;;;;21.83;60.32;100191.22;108124;1288;22005;-63
2023/05/23 01:29:20;;;;;;;4.60;2.80;;;;;;;21.81;60.11;100189.06;107924;1288;21994;-64
2023/05/23 01:31:48;;;;;;;6.50;2.80;;;;;;;21.80;59.82;100192.70;108114;1288;21995;-63
2023/05/23 01:34:13;;;;;;;5.60;3.10;;;;;;;21.79;60.00;100198.11;108186;1287;22030;-62
2023/05/23 01:36:40;;;;;;;6.00;3.30;;;;;;;21.78;59.91;100201.91;108121;1283;22183;-63
2023/05/23 01:39:06;;;;;;;6.30;3.00;;;;;;;21.77;59.89;100201.23;107867;1287;22006;-63
2023/05/23 01:41:33;;;;;;;7.00;2.90;;;;;;;21.77;59.96;100201.95;108155;1281;21991;-60
2023/05/23 01:43:59;;;;;;;5.60;3.90;;;;;;;21.76;60.07;100201.98;108127;1278;22000;-63
2023/05/23 01:46:26;;;;;;;4.30;3.00;;;;;;;21.75;60.10;100200.09;107861;1288;22003;-61
2023/05/23 01:48:52;;;;;;;5.40;2.60;;;;;;;21.74;60.07;100200.32;108154;1284;22024;-62
2023/05/23 01:51:18;;;;;;;6.00;3.20;;;;;;;21.73;59.83;100199.17;108247;1287;21992;-62
2023/05/23 01:53:43;;;;;;;5.10;2.90;;;;;;;21.74;60.09;100197.70;107990;1287;21992;-59
2023/05/23 01:56:09;;;;;;;4.80;3.10;;;;;;;21.73;60.42;100192.59;108093;1287;21993;-61
2023/05/23 01:58:35;;;;;;;6.90;3.00;;;;;;;21.70;60.58;100187.21;108114;1288;21986;-62
2023/05/23 02:01:01;;;;;;;6.30;3.40;;;;;;;21.68;61.00;100188.91;108095;1288;22033;-63
2023/05/23 02:03:26;;;;;;;4.50;3.50;;;;;;;21.66;60.68;100186.74;108124;1284;22036;-60
2023/05/23 02:05:52;;;;;;;4.20;3.10;;;;;;;21.63;60.82;100187.08;107838;1287;21990;-59
2023/05/23 02:08:18;;;;;;;7.00;3.50;;;;;;;21.61;61.06;100187.75;108141;1281;21988;-61
2023/05/23 02:10:44;;;;;;;8.10;3.40;;;;;;;21.59;60.66;100188.90;108163;1287;21999;-59
2023/05/23 02:13:09;;;;;;;6.60;3.20;;;;;;;21.60;60.78;100192.09;108137;1284;22000;-61
2023/05/23 02:15:35;;;;;;;5.20;3.40;;;;;;;21.62;60.63;100190.23;108133;1288;22003;-62
2023/05/23 02:18:02;;;;;;;4.40;3.00;;;;;;;21.59;61.32;100190.15;108110;1287;21997;-59
2023/05/23 02:20:27;;;;;;;7.40;3.70;;;;;;;21.56;61.48;100189.31;108130;1284;22000;-59
2023/05/23 02:22:53;;;;;;;9.10;3.50;;;;;;;21.55;61.18;100189.68;108121;1287;22006;-60
2023/05/23 02:25:19;;;;;;;5.50;3.30;;;;;;;21.56;61.66;100188.58;108149;1287;22000;-62
2023/05/23 02:27:47;;;;;;;5.60;3.20;;;;;;;21.56;62.02;100192.13;108107;1281;22032;-61
2023/05/23 02:30:13;;;;;;;5.10;3.40;;;;;;;21.55;61.47;100199.52;108135;1288;21990;-61
2023/05/23 02:32:40;;;;;;;5.20;3.50;;;;;;;21.53;61.62;100201.23;108096;1288;21989;-59
2023/05/23 02:35:07;;;;;;;8.90;3.90;;;;;;;21.53;61.74;100206.24;108097;1288;22455;-61
2023/05/23 02:37:32;;;;;;;5.20;3.80;;;;;;;21.52;61.45;100206.83;108095;1288;21993;-61
2023/05/23 02:39:58;;;;;;;5.90;4.10;;;;;;;21.51;61.65;100208.49;108081;1286;22027;-59
2023/05/23 02:42:24;;;;;;;10.00;3.70;;;;;;;21.50;62.05;100209.96;108064;1287;22083;-61
2023/05/23 02:44:50;;;;;;;6.60;3.80;;;;;;;21.51;61.86;100208.32;108114;1284;21992;-59
2023/05/23 02:47:15;;;;;;;6.40;3.90;;;;;;;21.52;62.22;100208.44;108057;1284;21990;-59
2023/05/23 02:49:41;;;;;;;4.90;3.10;;;;;;;21.51;62.38;100209.89;108173;1277;21989;-59
2023/05/23 02:52:06;;;;;;;4.80;3.50;;;;;;;21.52;62.04;100213.77;108120;1284;21987;-61
2023/05/23 02:54:32;;;;;;;6.60;3.30;;;;;;;21.54;62.42;100213.48;107956;1287;23065;-63
2023/05/23 02:56:58;;;;;;;5.00;3.40;;;;;;;21.56;61.93;100218.04;108102;1287;21999;-63
2023/05/23 02:59:23;;;;;;;10.20;3.90;;;;;;;21.61;61.75;100213.83;108085;1287;21995;-60
2023/05/23 03:01:49;;;;;;;4.60;3.40;;;;;;;21.64;61.86;100213.98;108056;1287;22030;-62
2023/05/23 03:04:15;;;;;;;7.90;3.80;;;;;;;21.67;61.81;100215.23;108078;1287;22002;-60
2023/05/23 03:06:43;;;;;;;5.70;3.70;;;;;;;21.69;61.76;100213.14;108069;1287;22002;-61
2023/05/23 03:09:08;;;;;;;5.20;3.80;;;;;;;21.73;61.66;100210.94;108141;1284;21994;-60
2023/05/23 03:11:36;;;;;;;7.00;4.00;;;;;;;21.76;61.66;100214.37;107866;1287;22045;-60
2023/05/23 03:14:02;;;;;;;6.90;3.70;;;;;;;21.77;61.60;100210.86;108118;1282;21992;-61
2023/05/23 03:16:27;;;;;;;5.40;3.10;;;;;;;21.78;61.54;100209.73;108123;1281;21998;-61
2023/05/23 03:18:53;;;;;;;5.90;3.50;;;;;;;21.80;61.88;100216.23;108069;1281;21992;-61
2023/05/23 03:21:18;;;;;;;5.10;3.10;;;;;;;21.83;61.82;100215.85;108084;1287;22368;-60
2023/05/23 03:23:44;;;;;;;4.70;3.20;;;;;;;21.87;61.55;100212.42;107883;1286;21998;-61
2023/05/23 03:26:10;;;;;;;6.30;3.60;;;;;;;21.91;61.83;100213.42;108124;1281;22012;-61
2023/05/23 03:28:36;;;;;;;6.40;3.70;;;;;;;21.95;61.77;100210.29;108072;1284;21998;-60
2023/05/23 03:31:01;;;;;;;5.50;3.50;;;;;;;22.01;61.85;100210.10;108117;1284;21992;-60
2023/05/23 03:33:27;;;;;;;6.90;3.30;;;;;;;22.08;62.14;100213.27;108122;1287;21990;-61
2023/05/23 03:35:53;;;;;;;5.60;3.60;;;;;;;22.11;61.91;100211.60;108119;1287;22746;-61
2023/05/23 03:38:19;;;;;;;5.30;3.90;;;;;;;22.15;61.77;100212.09;108127;1281;22046;-61
2023/05/23 03:40:45;;;;;;;5.10;3.60;;;;;;;22.20;61.89;100215.33;108136;1284;21994;-61
2023/05/23 03:43:11;;;;;;;4.90;3.10;;;;;;;22.26;61.72;100219.45;108059;1288;21992;-62
2023/05/23 03:45:36;;;;;;;6.10;3.70;;;;;;;22.29;61.59;100221.20;108109;1288;21992;-61
2023/05/23 03:48:02;;;;;;;4.60;3.30;;;;;;;22.34;61.32;100223.57;108100;1288;22002;-63
2023/05/23 03:50:28;;;;;;;5.00;3.80;;;;;;;22.40;61.36;100220.72;108099;1288;23045;-61
2023/05/23 03:52:54;;;;;;;4.20;3.30;;;;;;;22.45;61.37;100216.31;108085;1289;22107;-61
2023/05/23 03:55:21;;;;;;;5.30;3.40;;;;;;;22.49;61.39;100213.73;108150;1287;21996;-61
2023/05/23 03:57:47;;;;;;;6.30;3.80;;;;;;;22.52;61.54;100211.97;108168;1287;21993;-62
2023/05/23 04:00:14;;;;;;;4.90;3.30;;;;;;;22.51;61.07;100217.15;107984;1287;22031;-61
2023/05/23 04:02:39;;;;;;;4.90;3.70;;;;;;;22.52;61.11;100219.39;108074;1288;21993;-61
2023/05/23 04:05:05;;;;;;;4.80;3.60;;;;;;;22.54;61.10;100215.36;108088;1287;22859;-60
2023/05/23 04:07:35;;;;;;;6.80;3.60;;;;;;;22.54;61.03;100214.79;108124;1287;23615;-61
2023/05/23 04:10:02;;;;;;;5.50;3.40;;;;;;;22.56;61.02;100218.05;108092;1287;22001;-61
2023/05/23 04:12:30;;;;;;;5.30;3.60;;;;;;;22.60;60.99;100221.23;108126;1285;22458;-61
2023/05/23 04:14:56;;;;;;;6.50;3.70;;;;;;;22.63;60.80;100223.70;108100;1287;22000;-61
2023/05/23 04:17:23;;;;;;;8.30;3.50;;;;;;;22.67;60.69;100225.95;108151;1280;23711;-60
2023/05/23 04:19:49;;;;;;;9.50;4.20;;;;;;;22.73;60.93;100230.02;108205;1285;22069;-61
2023/05/23 04:22:15;;;;;;;7.00;4.20;;;;;;;22.80;61.08;100233.33;108208;1287;21995;-62
2023/05/23 04:24:41;;;;;;;4.50;3.60;;;;;;;22.88;60.94;100232.49;108154;1287;21992;-61
2023/05/23 04:27:07;;;;;;;6.30;3.70;;;;;;;22.93;60.95;100229.42;108096;1284;21992;-61
2023/05/23 04:29:34;;;;;;;4.90;3.70;;;;;;;22.99;61.06;100229.02;108092;1287;21990;-61
2023/05/23 04:32:01;;;;;;;4.60;3.20;;;;;;;23.03;60.82;100231.08;108088;1281;24415;-60
2023/05/23 04:34:27;;;;;;;6.40;3.60;;;;;;;23.11;60.74;100227.92;109983;1288;21980;-60
2023/05/23 04:36:53;;;;;;;7.10;3.60;;;;;;;23.21;60.74;100225.11;108571;1288;22003;-58
2023/05/23 04:39:19;;;;;;;4.60;3.40;;;;;;;23.30;60.87;100225.36;108094;1287;21992;-61
2023/05/23 04:41:45;;;;;;;7.60;4.10;;;;;;;23.40;60.84;100226.49;108108;1288;21984;-60
2023/05/23 04:44:11;;;;;;;5.90;3.60;;;;;;;23.49;60.83;100224.27;108115;1288;21992;-59
2023/05/23 04:46:40;;;;;;;7.40;3.70;;;;;;;23.59;60.78;100223.27;108165;1287;21977;-59
2023/05/23 04:49:07;;;;;;;6.60;3.60;;;;;;;23.68;60.73;100223.02;108139;1279;22005;-60
2023/05/23 04:51:33;;;;;;;5.30;3.20;;;;;;;23.76;60.57;100221.75;108691;1280;21989;-60
2023/05/23 04:54:01;;;;;;;4.50;3.30;;;;;;;23.84;60.69;100224.36;108134;1287;21996;-59
2023/05/23 04:56:27;;;;;;;4.60;3.60;;;;;;;23.93;60.61;100222.50;108167;1283;21989;-60
2023/05/23 04:58:53;;;;;;;4.60;3.60;;;;;;;24.02;60.58;100223.50;108128;1277;22002;-60
2023/05/23 05:01:19;;;;;;;4.90;3.80;;;;;;;24.12;60.66;100224.76;108113;1287;21992;-61
2023/05/23 05:03:46;;;;;;;6.00;3.60;;;;;;;24.23;60.43;100228.07;108186;1281;22455;-58
2023/05/23 05:06:13;;;;;;;7.00;3.80;;;;;;;24.33;60.25;100233.09;108174;1286;21997;-59
2023/05/23 05:08:39;;;;;;;5.20;3.90;;;;;;;24.42;59.98;100235.73;108113;1281;22002;-59
2023/05/23 05:11:05;;;;;;;5.40;3.00;;;;;;;24.50;59.84;100236.41;108183;1284;21992;-59
2023/05/23 05:13:31;;;;;;;4.90;3.20;;;;;;;24.61;59.72;100236.88;108133;1285;22004;-60
2023/05/23 05:15:57;;;;;;;4.70;3.60;;;;;;;24.68;59.39;100238.28;108084;1284;22090;-60
2023/05/23 05:18:25;;;;;;;5.10;3.60;;;;;;;24.76;59.28;100234.30;108090;1284;23193;-59
2023/05/23 05:20:50;;;;;;;6.10;3.70;;;;;;;24.84;59.24;100233.89;108127;1287;21995;-60
2023/05/23 05:23:16;;;;;;;5.20;3.90;;;;;;;24.88;58.56;100233.60;107903;1287;22052;-59
2023/05/23 05:25:42;;;;;;;7.30;4.00;;;;;;;24.90;58.53;100236.54;108079;1287;22028;-59
2023/05/23 05:28:07;;;;;;;5.10;3.30;;;;;;;24.94;58.59;100232.62;108116;1287;21993;-61
2023/05/23 05:30:34;;;;;;;7.60;4.00;;;;;;;25.05;58.74;100233.80;108217;1284;21990;-59
2023/05/23 05:33:02;;;;;;;5.40;3.60;;;;;;;25.20;59.35;100231.06;108101;1286;21992;-59
2023/05/23 05:35:34;;;;;;;6.10;3.70;;;;;;;25.40;59.53;100229.75;108230;1281;21992;-59
2023/05/23 05:38:01;;;;;;;6.50;4.10;;;;;;;25.64;59.50;100227.16;108161;1287;21988;-60
2023/05/23 05:40:27;;;;;;;33.60;25.70;;;;;;;25.93;59.64;100226.15;110039;1287;21939;-59
2023/05/23 05:42:52;;;;;;;34.40;24.60;;;;;;;26.24;59.13;100224.25;110055;1279;22320;-61
2023/05/23 05:45:18;;;;;;;12.30;8.20;;;;;;;26.51;58.77;100219.90;110046;1278;22357;-60
2023/05/23 05:47:44;;;;;;;7.00;4.60;;;;;;;26.77;58.47;100221.22;109082;1287;21987;-59
2023/05/23 05:50:10;;;;;;;5.70;3.90;;;;;;;27.07;58.69;100218.61;108271;1287;22104;-59
2023/05/23 05:52:38;;;;;;;36.20;24.30;;;;;;;27.38;58.28;100217.41;108122;1287;22002;-59
2023/05/23 05:55:10;;;;;;;22.50;14.50;;;;;;;27.69;57.56;100221.44;108104;1284;21995;-60
2023/05/23 05:57:39;;;;;;;12.40;9.00;;;;;;;27.99;57.19;100225.36;108121;1281;22769;-59
2023/05/23 06:00:14;;;;;;;8.50;5.20;;;;;;;28.31;57.46;100226.30;108144;1288;23735;-59
2023/05/23 06:02:41;;;;;;;104.80;88.20;;;;;;;28.64;55.87;100223.73;108149;1278;21995;-59
2023/05/23 06:05:11;;;;;;;228.20;142.00;;;;;;;28.82;55.30;100220.48;108133;1284;24341;-59
2023/05/23 06:07:39;;;;;;;45.50;33.20;;;;;;;29.02;55.29;100219.24;108118;1287;21990;-59
2023/05/23 06:10:06;;;;;;;25.90;19.60;;;;;;;29.28;54.67;100216.98;108089;1284;22033;-59
2023/05/23 06:12:34;;;;;;;9.60;7.00;;;;;;;29.53;54.17;100214.84;108107;1284;22002;-59
2023/05/23 06:15:00;;;;;;;10.30;5.50;;;;;;;29.80;53.98;100214.23;108138;1285;21992;-59
2023/05/23 06:17:26;;;;;;;8.00;4.80;;;;;;;30.06;53.66;100212.52;108115;1288;22006;-59
2023/05/23 06:19:52;;;;;;;6.20;4.10;;;;;;;30.34;53.57;100213.30;108106;1284;21994;-59
2023/05/23 06:22:17;;;;;;;5.00;3.70;;;;;;;30.61;52.62;100213.70;108126;1287;22049;-60
2023/05/23 06:24:43;;;;;;;5.80;4.10;;;;;;;30.83;52.19;100212.90;108140;1281;22028;-59
2023/05/23 06:27:09;;;;;;;4.30;3.70;;;;;;;31.03;51.26;100209.48;108073;1287;21990;-59
2023/05/23 06:29:35;;;;;;;5.00;3.90;;;;;;;31.22;51.42;100207.39;108094;1284;21994;-59
2023/05/23 06:32:01;;;;;;;8.40;3.90;;;;;;;31.46;50.95;100205.69;108075;1287;22011;-60
2023/05/23 06:34:27;;;;;;;4.80;3.60;;;;;;;31.71;50.11;100206.23;108083;1288;22380;-59
2023/05/23 06:36:53;;;;;;;6.60;3.60;;;;;;;31.88;48.95;100205.38;108136;1287;22033;-59
2023/05/23 06:39:19;;;;;;;7.50;3.50;;;;;;;32.00;48.79;100202.61;108154;1284;21986;-59
2023/05/23 06:41:46;;;;;;;6.60;3.40;;;;;;;32.19;48.79;100199.73;108172;1284;22003;-59
2023/05/23 06:44:11;;;;;;;7.50;4.60;;;;;;;32.36;48.18;100197.90;108088;1288;22102;-60
2023/05/23 06:46:37;;;;;;;5.10;3.40;;;;;;;32.44;47.28;100198.34;108120;1288;21999;-59
2023/05/23 06:49:02;;;;;;;8.20;3.30;;;;;;;32.47;46.82;100199.65;108082;1288;21992;-59
2023/05/23 06:51:28;;;;;;;5.60;3.70;;;;;;;32.48;46.44;100197.69;108142;1284;22003;-59
2023/05/23 06:53:55;;;;;;;7.20;3.10;;;;;;;32.48;46.11;100197.92;108082;1285;21991;-60
2023/05/23 06:56:23;;;;;;;4.60;3.00;;;;;;;32.48;45.75;100195.58;108133;1287;22517;-59
2023/05/23 06:58:49;;;;;;;4.60;3.30;;;;;;;32.50;45.49;100193.85;108191;1278;22046;-59
2023/05/23 07:01:15;;;;;;;5.30;3.30;;;;;;;32.48;44.93;100190.98;108125;1277;22002;-60
2023/05/23 07:03:43;;;;;;;6.20;3.30;;;;;;;32.38;44.47;100191.75;108083;1279;21999;-60
2023/05/23 07:06:08;;;;;;;5.80;3.40;;;;;;;32.23;44.48;100187.53;108071;1287;21997;-59
2023/05/23 07:08:34;;;;;;;6.00;3.30;;;;;;;32.11;44.17;100189.67;107864;1288;21992;-59
2023/05/23 07:11:00;;;;;;;6.50;3.90;;;;;;;32.04;44.40;100188.88;108066;1288;21988;-60
2023/05/23 07:13:26;;;;;;;7.10;3.80;;;;;;;32.03;44.26;100192.71;108115;1286;22034;-59
2023/05/23 07:15:51;;;;;;;7.80;3.70;;;;;;;32.07;44.48;100190.26;107953;1288;23166;-59
2023/05/23 07:18:17;;;;;;;8.90;3.90;;;;;;;32.16;44.56;100189.89;108077;1288;22462;-59
2023/05/23 07:20:43;;;;;;;6.70;3.60;;;;;;;32.25;44.17;100188.39;108085;1285;22461;-59
2023/05/23 07:23:09;;;;;;;6.00;3.60;;;;;;;32.34;44.36;100189.49;108070;1288;22007;-61
2023/05/23 07:25:34;;;;;;;3.70;3.10;;;;;;;32.46;44.62;100190.30;108038;1287;22033;-62
2023/05/23 07:28:00;;;;;;;4.60;3.20;;;;;;;32.70;44.44;100189.35;108154;1277;21995;-62
2023/05/23 07:30:26;;;;;;;4.20;3.20;;;;;;;32.99;44.37;100186.25;108195;1287;21997;-60
2023/05/23 07:32:52;;;;;;;4.50;3.30;;;;;;;33.32;44.22;100181.67;108080;1287;21989;-62
2023/05/23 07:35:22;;;;;;;4.50;3.30;;;;;;;33.56;43.23;100176.43;108090;1288;21992;-60
2023/05/23 07:37:48;;;;;;;6.90;3.30;;;;;;;33.76;42.73;100174.46;108115;1281;21969;-61
2023/05/23 07:40:14;;;;;;;7.30;2.90;;;;;;;33.89;41.87;100172.60;108159;1283;22027;-62
2023/05/23 07:42:40;;;;;;;5.10;3.30;;;;;;;34.08;42.20;100169.71;108110;1287;23612;-61
2023/05/23 07:45:06;;;;;;;14.60;3.90;;;;;;;34.35;42.39;100170.21;108137;1287;22030;-61
2023/05/23 07:47:33;;;;;;;5.10;3.00;;;;;;;34.66;42.46;100169.39;108154;1284;21996;-60
2023/05/23 07:50:01;;;;;;;6.70;2.90;;;;;;;34.93;41.61;100167.02;108089;1278;21997;-60
2023/05/23 07:52:29;;;;;;;6.30;3.00;;;;;;;35.17;40.89;100166.66;108148;1288;21991;-60
2023/05/23 07:54:55;;;;;;;8.20;3.00;;;;;;;35.39;40.19;100169.28;108145;1287;22011;-62
2023/05/23 07:57:20;;;;;;;4.20;2.70;;;;;;;35.52;39.53;100166.73;108124;1288;21990;-60
2023/05/23 07:59:46;;;;;;;5.80;3.10;;;;;;;35.72;39.37;100170.06;108107;1288;21995;-60
2023/05/23 08:02:32;;;;;;;4.30;3.10;;;;;;;35.90;38.75;100170.09;107877;1288;21997;-61
2023/05/23 08:04:58;;;;;;;5.10;2.50;;;;;;;35.92;38.45;100171.35;108234;1283;22033;-61
2023/05/23 08:07:24;;;;;;;3.60;2.60;;;;;;;35.98;37.51;100170.89;108132;1287;21989;-60
2023/05/23 08:09:50;;;;;;;10.90;3.10;;;;;;;35.99;37.54;100166.60;108172;1286;21992;-60
2023/05/23 08:12:15;;;;;;;6.10;2.60;;;;;;;36.08;37.69;100165.77;108146;1283;21992;-61
2023/05/23 08:14:41;;;;;;;6.80;2.60;;;;;;;36.22;37.58;100162.09;108156;1287;21998;-60
2023/05/23 08:17:07;;;;;;;6.20;2.90;;;;;;;36.36;37.37;100161.57;108176;1283;22008;-61
2023/05/23 08:19:32;;;;;;;5.80;2.40;;;;;;;36.50;37.29;100159.09;108128;1288;22013;-62
2023/05/23 08:21:58;;;;;;;7.00;2.80;;;;;;;36.70;36.99;100159.11;108131;1287;21993;-60
2023/05/23 08:24:24;;;;;;;5.00;2.80;;;;;;;36.82;36.61;100159.52;108126;1287;21987;-61
2023/05/23 08:26:49;;;;;;;4.80;2.50;;;;;;;36.95;36.31;100158.71;108136;1287;21992;-60
2023/05/23 08:29:15;;;;;;;5.90;2.70;;;;;;;37.10;35.94;100157.15;108140;1287;22104;-61
2023/05/23 08:31:41;;;;;;;5.10;2.40;;;;;;;37.32;35.57;100159.41;108084;1287;22002;-62
2023/05/23 08:34:07;;;;;;;8.60;2.90;;;;;;;37.48;35.84;100156.05;108101;1276;24324;-61
2023/05/23 08:36:35;;;;;;;8.60;2.60;;;;;;;37.72;35.79;100153.77;108116;1287;21994;-61
2023/05/23 08:39:01;;;;;;;5.00;2.60;;;;;;;37.97;35.68;100151.23;108097;1287;22027;-61
2023/05/23 08:41:27;;;;;;;7.30;2.40;;;;;;;38.15;35.16;100145.95;108165;1277;22023;-61
2023/05/23 08:43:52;;;;;;;5.70;2.20;;;;;;;38.29;34.77;100145.72;108064;1280;21989;-63
2023/05/23 08:46:18;;;;;;;4.50;2.60;;;;;;;38.42;34.79;100144.34;108175;1287;22840;-61
2023/05/23 08:48:50;;;;;;;6.50;2.70;;;;;;;38.55;34.47;100140.19;108101;1287;22255;-61
2023/05/23 08:51:15;;;;;;;4.60;2.60;;;;;;;38.58;33.80;100140.73;108017;1287;21996;-62
2023/05/23 08:53:45;;;;;;;8.40;2.80;;;;;;;38.38;33.07;100138.14;107711;1276;192057;-62
2023/05/23 08:56:11;;;;;;;6.50;3.20;;;;;;;38.12;33.35;100135.48;107991;1288;21989;-61
2023/05/23 08:58:37;;;;;;;4.70;2.20;;;;;;;37.93;33.24;100136.69;108097;1288;22209;-61
2023/05/23 09:01:03;;;;;;;4.00;2.30;;;;;;;37.84;33.42;100128.64;107818;1288;22737;-60
2023/05/23 09:03:30;;;;;;;5.10;2.30;;;;;;;37.71;32.93;100127.19;108116;1288;21998;-61
2023/05/23 09:05:56;;;;;;;3.20;2.10;;;;;;;37.44;32.92;100129.62;108116;1280;21994;-63
2023/05/23 09:08:25;;;;;;;6.30;2.60;;;;;;;37.15;32.96;100126.90;107815;1287;23706;-62
2023/05/23 09:10:52;;;;;;;4.20;2.30;;;;;;;36.90;32.96;100121.33;108001;1287;24314;-61
2023/05/23 09:13:19;;;;;;;4.00;2.30;;;;;;;36.87;33.31;100121.34;107961;1288;21999;-60
2023/05/23 09:15:56;;;;;;;6.50;2.50;;;;;;;36.92;33.08;100119.44;108132;1287;21994;-60
2023/05/23 09:18:27;;;;;;;4.30;2.20;;;;;;;36.96;32.68;100115.06;108201;1287;22009;-62
2023/05/23 09:20:52;;;;;;;;;;;;;;;36.97;32.84;100112.79;107903;1286;22049;-61
2023/05/23 09:23:19;;;;;;;7.40;2.40;;;;;;;37.03;32.56;100112.21;108107;1283;24323;-60
2023/05/23 09:25:47;;;;;;;4.00;2.10;;;;;;;36.97;31.77;100109.83;108166;1287;21986;-60
2023/05/23 09:28:14;;;;;;;5.00;2.40;;;;;;;36.98;32.33;100109.96;108070;1281;21989;-62
2023/05/23 09:30:40;;;;;;;4.40;2.10;;;;;;;37.18;32.53;100106.11;108123;1283;22003;-61
2023/05/23 09:33:07;;;;;;;3.80;2.40;;;;;;;37.43;32.14;100105.56;108116;1287;21992;-63
2023/05/23 09:35:32;;;;;;;3.70;2.20;;;;;;;37.56;31.78;100106.13;108136;1283;21992;-62
2023/05/23 09:37:58;;;;;;;3.80;2.20;;;;;;;37.53;31.81;100105.66;108106;1280;21988;-61
2023/05/23 09:40:28;;;;;;;2.80;2.10;;;;;;;37.55;31.82;100103.34;108076;1283;22152;-60
2023/05/23 09:42:54;;;;;;;4.40;2.40;;;;;;;37.65;31.95;100106.61;108182;1287;21994;-63
2023/05/23 09:45:21;;;;;;;4.00;1.60;;;;;;;37.78;31.98;100105.61;107975;1288;21996;-61
2023/05/23 09:47:52;;;;;;;3.30;2.00;;;;;;;37.95;31.79;100101.13;107768;1286;21995;-63
2023/05/23 09:50:18;;;;;;;8.70;2.20;;;;;;;38.05;31.11;100097.36;108152;1287;21989;-60
2023/05/23 09:52:45;;;;;;;4.00;1.90;;;;;;;38.13;30.66;100097.13;108145;1281;21987;-61
2023/05/23 09:55:10;;;;;;;4.00;1.90;;;;;;;38.19;30.20;100092.96;108185;1287;22009;-61
2023/05/23 09:57:41;;;;;;;4.90;1.90;;;;;;;38.27;30.83;100093.73;107883;1287;21997;-63
2023/05/23 10:00:13;;;;;;;4.60;1.80;;;;;;;38.51;30.95;100094.03;108144;1287;22761;-63
2023/05/23 10:02:55;;;;;;;3.10;1.80;;;;;;;38.75;30.72;100096.63;108110;1278;22033;-62
2023/05/23 10:05:46;;;;;;;3.50;1.70;;;;;;;39.08;30.38;100093.09;108088;1280;23053;-63
2023/05/23 10:08:39;;;;;;;2.50;1.70;;;;;;;39.54;30.11;100092.15;108143;1287;21997;-60
2023/05/23 10:11:13;;;;;;;4.10;1.70;;;;;;;40.04;29.60;100083.89;108102;1287;23613;-60
2023/05/23 10:13:44;;;;;;;3.40;2.00;;;;;;;40.49;29.43;100082.24;108142;1287;22457;-60
2023/05/23 10:16:30;;;;;;;3.00;2.00;;;;;;;40.78;28.78;100084.88;107873;1278;21978;-60
2023/05/23 10:18:57;;;;;;;5.10;1.70;;;;;;;40.80;28.35;100080.20;108173;1281;22487;-61
2023/05/23 10:21:24;;;;;;;5.00;2.00;;;;;;;40.69;28.03;100074.77;108111;1287;21985;-59
2023/05/23 10:23:50;;;;;;;3.50;2.00;;;;;;;40.52;28.18;100077.23;108123;1287;21983;-60
2023/05/23 10:26:16;;;;;;;3.00;1.70;;;;;;;40.28;28.31;100078.98;107906;1286;22101;-60
2023/05/23 10:28:42;;;;;;;4.20;1.60;;;;;;;40.03;28.25;100073.68;108147;1280;22585;-61
2023/05/23 10:31:07;;;;;;;3.20;1.80;;;;;;;39.93;28.65;100072.05;107923;1287;22043;-61
2023/05/23 10:33:35;;;;;;;2.90;1.80;;;;;;;39.98;28.86;100068.88;108078;1287;22008;-62
2023/05/23 10:36:24;;;;;;;3.90;1.90;;;;;;;40.08;28.75;100070.61;108096;1281;22100;-61
2023/05/23 10:38:55;;;;;;;2.20;1.50;;;;;;;40.22;28.23;100065.44;108154;1284;23113;-60
2023/05/23 10:41:38;;;;;;;4.70;2.30;;;;;;;40.19;26.96;100061.54;107968;1277;21985;-59
2023/05/23 10:44:16;;;;;;;3.00;2.00;;;;;;;40.25;27.49;100059.73;108033;1284;21995;-61
2023/05/23 10:47:00;;;;;;;3.50;1.90;;;;;;;40.41;27.27;100061.83;108512;1285;21986;-60
2023/05/23 10:49:41;;;;;;;3.90;1.80;;;;;;;40.52;27.29;100062.71;108909;1288;21989;-60
2023/05/23 10:52:07;;;;;;;3.70;1.80;;;;;;;40.72;27.62;100060.48;108141;1283;21990;-60
2023/05/23 10:54:44;;;;;;;6.80;2.60;;;;;;;41.02;27.78;100063.63;108249;1287;21998;-60
2023/05/23 10:57:11;;;;;;;7.60;2.30;;;;;;;41.35;27.57;100056.86;108122;1287;22265;-61
2023/05/23 10:59:38;;;;;;;6.50;2.00;;;;;;;41.56;27.57;100056.86;108159;1288;22374;-63
2023/05/23 11:02:27;;;;;;;6.80;2.80;;;;;;;41.68;27.15;100058.36;107847;1286;23834;-61
2023/05/23 11:05:22;;;;;;;14.50;3.30;;;;;;;41.63;26.88;100059.78;108043;1280;22026;-61
2023/05/23 11:08:12;;;;;;;14.60;3.80;;;;;;;41.38;27.19;100059.36;108091;1281;22001;-62
2023/05/23 11:11:01;;;;;;;22.10;5.00;;;;;;;41.12;27.32;100065.53;108111;1288;21986;-62
2023/05/23 11:13:51;;;;;;;8.10;2.70;;;;;;;40.86;27.36;100067.77;108082;1287;21987;-61
2023/05/23 11:16:42;;;;;;;6.90;2.40;;;;;;;40.72;27.74;100067.74;108172;1280;22031;-61
2023/05/23 11:19:28;;;;;;;3.30;2.00;;;;;;;40.45;27.90;100064.55;108176;1280;22005;-60
2023/05/23 11:22:01;;;;;;;4.30;2.20;;;;;;;40.19;28.11;100067.19;108107;1280;23640;-61